createdAt,value
2023-05-03T00:01:43.574Z,54.49
2023-05-03T00:04:11.106Z,54.54
2023-05-03T00:06:39.274Z,54.55
2023-05-03T00:09:06.530Z,54.50
2023-05-03T00:11:33.673Z,54.32
2023-05-03T00:14:00.514Z,54.32
2023-05-03T00:16:27.988Z,54.36
2023-05-03T00:18:55.235Z,54.30
2023-05-03T00:21:22.698Z,54.27
2023-05-03T00:23:49.728Z,54.24
2023-05-03T00:26:16.670Z,54.17
2023-05-03T00:28:43.822Z,54.12
2023-05-03T00:31:10.847Z,54.10
2023-05-03T00:33:38.528Z,54.01
2023-05-03T00:36:10.002Z,54.02
2023-05-03T00:38:37.466Z,54.06
2023-05-03T00:41:04.792Z,54.24
2023-05-03T00:43:32.282Z,54.53
2023-05-03T00:46:12.393Z,54.73
2023-05-03T00:48:42.630Z,54.81
2023-05-03T00:51:09.879Z,54.74
2023-05-03T00:53:37.332Z,54.72
2023-05-03T00:56:05.509Z,54.60
2023-05-03T00:58:39.520Z,54.37
2023-05-03T01:01:09.525Z,54.42
2023-05-03T01:03:37.390Z,54.38
2023-05-03T01:06:27.155Z,54.47
2023-05-03T01:08:57.809Z,54.53
2023-05-03T01:11:28.643Z,54.61
2023-05-03T01:13:57.339Z,54.63
2023-05-03T01:16:31.048Z,54.82
2023-05-03T01:19:00.947Z,54.87
2023-05-03T01:21:28.705Z,54.90
2023-05-03T01:24:22.218Z,54.74
2023-05-03T01:26:49.734Z,54.84
2023-05-03T01:29:16.984Z,54.81
2023-05-03T01:31:46.959Z,55.02
2023-05-03T01:34:18.658Z,55.46
2023-05-03T01:36:45.930Z,55.79
2023-05-03T01:39:22.693Z,55.73
2023-05-03T01:41:50.692Z,55.64
2023-05-03T01:44:19.648Z,55.76
2023-05-03T01:46:47.305Z,55.76
2023-05-03T01:49:14.788Z,55.95
2023-05-03T01:51:41.914Z,55.92
2023-05-03T01:54:08.874Z,55.80
2023-05-03T01:56:36.890Z,55.45
2023-05-03T01:59:04.387Z,55.50
2023-05-03T02:01:32.110Z,55.76
2023-05-03T02:03:59.373Z,56.08
2023-05-03T02:06:26.891Z,56.40
2023-05-03T02:08:53.908Z,56.55
2023-05-03T02:11:21.157Z,56.54
2023-05-03T02:13:50.201Z,56.63
2023-05-03T02:16:17.929Z,56.91
2023-05-03T02:18:45.269Z,57.09
2023-05-03T02:21:12.828Z,57.11
2023-05-03T02:23:40.284Z,57.07
2023-05-03T02:26:07.643Z,57.04
2023-05-03T02:28:34.783Z,57.17
2023-05-03T02:31:05.739Z,57.35
2023-05-03T02:33:34.000Z,57.45
2023-05-03T02:36:01.254Z,57.42
2023-05-03T02:38:28.502Z,57.40
2023-05-03T02:40:55.359Z,57.42
2023-05-03T02:43:22.912Z,57.41
2023-05-03T02:45:50.486Z,57.34
2023-05-03T02:48:18.328Z,57.46
2023-05-03T02:50:45.788Z,57.47
2023-05-03T02:53:12.975Z,57.53
2023-05-03T02:55:40.613Z,57.47
2023-05-03T02:58:09.689Z,57.60
2023-05-03T03:00:36.764Z,57.70
2023-05-03T03:03:04.253Z,57.67
2023-05-03T03:05:32.365Z,57.67
2023-05-03T03:07:59.415Z,57.37
2023-05-03T03:10:26.675Z,57.18
2023-05-03T03:12:54.120Z,57.05
2023-05-03T03:15:28.138Z,57.09
2023-05-03T03:17:58.016Z,57.18
2023-05-03T03:20:25.293Z,57.39
2023-05-03T03:22:52.446Z,57.61
2023-05-03T03:25:20.412Z,57.65
2023-05-03T03:27:47.566Z,57.71
2023-05-03T03:30:14.818Z,58.02
2023-05-03T03:33:05.965Z,58.19
2023-05-03T03:35:36.406Z,58.40
2023-05-03T03:38:04.263Z,58.52
2023-05-03T03:40:32.193Z,58.01
2023-05-03T03:42:59.237Z,57.35
2023-05-03T03:45:26.701Z,57.22
2023-05-03T03:47:54.201Z,57.58
2023-05-03T03:50:21.712Z,57.60
2023-05-03T03:52:48.754Z,57.41
2023-05-03T03:55:16.007Z,57.39
2023-05-03T03:57:43.972Z,57.38
2023-05-03T04:00:12.047Z,57.51
2023-05-03T04:02:47.309Z,57.61
2023-05-03T04:05:17.511Z,57.71
2023-05-03T04:07:45.587Z,57.86
2023-05-03T04:10:12.939Z,58.04
2023-05-03T04:12:40.731Z,58.02
2023-05-03T04:15:08.972Z,58.03
2023-05-03T04:17:36.655Z,58.20
2023-05-03T04:20:08.842Z,58.27
2023-05-03T04:22:38.636Z,58.39
2023-05-03T04:25:09.983Z,58.62
2023-05-03T04:27:37.930Z,58.58
2023-05-03T04:30:06.656Z,58.58
2023-05-03T04:32:40.236Z,58.59
2023-05-03T04:35:11.981Z,58.19
2023-05-03T04:37:43.010Z,57.88
2023-05-03T04:40:11.742Z,57.77
2023-05-03T04:42:43.369Z,57.78
2023-05-03T04:45:11.635Z,57.77
2023-05-03T04:47:38.893Z,57.69
2023-05-03T04:50:10.651Z,57.66
2023-05-03T04:52:39.018Z,57.49
2023-05-03T04:55:06.891Z,57.19
2023-05-03T04:57:34.141Z,56.97
2023-05-03T05:00:02.008Z,56.75
2023-05-03T05:02:29.643Z,56.47
2023-05-03T05:04:58.038Z,56.01
2023-05-03T05:07:25.490Z,55.72
2023-05-03T05:09:53.251Z,55.62
2023-05-03T05:12:20.403Z,55.57
2023-05-03T05:14:47.936Z,55.38
2023-05-03T05:17:14.959Z,55.10
2023-05-03T05:19:42.165Z,54.80
2023-05-03T05:22:09.222Z,54.92
2023-05-03T05:24:42.807Z,54.50
2023-05-03T05:27:10.259Z,54.29
2023-05-03T05:29:38.329Z,54.57
2023-05-03T05:32:05.537Z,54.65
2023-05-03T05:34:42.135Z,53.58
2023-05-03T05:37:12.303Z,51.61
2023-05-03T05:39:39.629Z,50.09
2023-05-03T05:42:07.222Z,48.33
2023-05-03T05:44:34.549Z,46.84
2023-05-03T05:47:01.914Z,45.18
2023-05-03T05:49:29.965Z,43.16
2023-05-03T05:51:57.222Z,41.55
2023-05-03T05:54:24.367Z,40.42
2023-05-03T05:56:52.167Z,39.42
2023-05-03T05:59:19.691Z,38.77
2023-05-03T06:01:46.986Z,38.23
2023-05-03T06:04:17.181Z,37.59
2023-05-03T06:06:45.441Z,36.95
2023-05-03T06:09:24.051Z,36.34
2023-05-03T06:11:55.007Z,35.82
2023-05-03T06:14:22.152Z,35.92
2023-05-03T06:16:51.192Z,35.62
2023-05-03T06:19:18.533Z,35.58
2023-05-03T06:21:45.757Z,35.75
2023-05-03T06:24:20.471Z,35.52
2023-05-03T06:26:49.703Z,35.74
2023-05-03T06:29:17.855Z,35.72
2023-05-03T06:31:45.416Z,35.90
2023-05-03T06:34:13.488Z,35.77
2023-05-03T06:36:42.468Z,35.78
2023-05-03T06:39:10.949Z,35.91
2023-05-03T06:41:38.404Z,35.83
2023-05-03T06:44:06.989Z,36.09
2023-05-03T06:46:34.489Z,35.97
2023-05-03T06:49:01.847Z,36.22
2023-05-03T06:51:30.590Z,36.27
2023-05-03T06:54:06.272Z,36.33
2023-05-03T06:56:33.689Z,36.52
2023-05-03T06:59:00.838Z,36.73
2023-05-03T07:01:28.103Z,36.47
2023-05-03T07:03:55.565Z,36.51
2023-05-03T07:06:23.769Z,36.50
2023-05-03T07:08:52.100Z,36.23
2023-05-03T07:11:24.980Z,36.01
2023-05-03T07:13:54.899Z,35.86
2023-05-03T07:16:22.275Z,35.97
2023-05-03T07:18:49.704Z,35.50
2023-05-03T07:21:16.861Z,35.00
2023-05-03T07:23:44.208Z,34.91
2023-05-03T07:26:11.579Z,35.14
2023-05-03T07:28:38.645Z,35.29
2023-05-03T07:31:05.567Z,35.41
2023-05-03T07:33:36.989Z,35.75
2023-05-03T07:36:05.389Z,36.49
2023-05-03T07:38:33.713Z,36.63
2023-05-03T07:41:00.738Z,37.10
2023-05-03T07:43:28.880Z,38.02
2023-05-03T07:45:56.400Z,38.89
2023-05-03T07:48:23.696Z,39.34
2023-05-03T07:50:51.095Z,39.68
2023-05-03T07:53:18.636Z,40.21
2023-05-03T07:55:45.980Z,40.95
2023-05-03T07:58:13.723Z,41.32
2023-05-03T08:00:40.976Z,41.61
2023-05-03T08:03:08.197Z,42.12
2023-05-03T08:05:36.424Z,42.36
2023-05-03T08:08:05.144Z,42.68
2023-05-03T08:10:37.150Z,43.01
2023-05-03T08:13:05.819Z,43.38
2023-05-03T08:15:33.419Z,43.69
2023-05-03T08:18:00.607Z,44.06
2023-05-03T08:20:27.835Z,44.30
2023-05-03T08:22:58.943Z,44.55
2023-05-03T08:25:27.943Z,44.44
2023-05-03T08:27:55.148Z,44.67
2023-05-03T08:30:22.550Z,45.25
2023-05-03T08:32:49.735Z,45.81
2023-05-03T08:35:17.086Z,45.78
2023-05-03T08:37:45.011Z,45.44
2023-05-03T08:40:14.007Z,45.65
2023-05-03T08:42:46.022Z,45.81
2023-05-03T08:45:15.215Z,45.79
2023-05-03T08:47:45.668Z,45.80
2023-05-03T08:50:14.591Z,46.40
2023-05-03T08:52:42.697Z,46.02
2023-05-03T08:55:10.313Z,46.10
2023-05-03T08:57:38.428Z,46.29
2023-05-03T09:00:10.069Z,46.84
2023-05-03T09:02:41.461Z,46.66
2023-05-03T09:05:15.397Z,46.75
2023-05-03T09:08:03.420Z,46.76
2023-05-03T09:10:31.428Z,46.47
2023-05-03T09:13:00.627Z,46.08
2023-05-03T09:16:09.934Z,46.44
2023-05-03T09:18:37.186Z,46.77
2023-05-03T09:21:04.507Z,46.67
2023-05-03T09:23:31.708Z,46.52
2023-05-03T09:25:59.759Z,46.96
2023-05-03T09:28:27.217Z,47.34
2023-05-03T09:31:06.188Z,47.11
2023-05-03T09:33:33.963Z,47.27
2023-05-03T09:36:02.477Z,47.03
2023-05-03T09:38:33.646Z,46.64
2023-05-03T09:41:05.700Z,46.64
2023-05-03T09:43:37.130Z,46.68
2023-05-03T09:46:11.314Z,46.46
2023-05-03T09:48:39.332Z,46.16
2023-05-03T09:51:06.492Z,45.98
2023-05-03T09:53:36.130Z,46.53
2023-05-03T09:56:04.296Z,46.52
2023-05-03T09:58:34.588Z,46.30
2023-05-03T10:01:01.681Z,46.31
2023-05-03T10:03:34.663Z,46.26
2023-05-03T10:06:03.552Z,46.36
2023-05-03T10:08:34.592Z,46.34
2023-05-03T10:11:04.791Z,46.14
2023-05-03T10:13:32.129Z,46.20
2023-05-03T10:16:05.446Z,46.22
2023-05-03T10:18:32.632Z,46.08
2023-05-03T10:21:09.494Z,46.03
2023-05-03T10:23:36.500Z,46.26
2023-05-03T10:26:13.015Z,46.52
2023-05-03T10:28:40.313Z,46.51
2023-05-03T10:31:46.358Z,46.42
2023-05-03T10:34:20.488Z,46.29
2023-05-03T10:36:50.255Z,46.06
2023-05-03T10:39:18.777Z,46.29
2023-05-03T10:41:48.472Z,46.11
2023-05-03T10:44:54.243Z,46.20
2023-05-03T10:47:24.417Z,46.23
2023-05-03T10:50:16.103Z,46.12
2023-05-03T10:52:43.070Z,46.27
2023-05-03T10:55:10.184Z,46.46
2023-05-03T10:57:40.279Z,46.60
2023-05-03T11:00:16.078Z,46.44
2023-05-03T11:03:17.300Z,46.74
2023-05-03T11:05:44.956Z,46.89
2023-05-03T11:08:18.969Z,46.91
2023-05-03T11:10:47.350Z,46.89
2023-05-03T11:13:14.828Z,46.78
2023-05-03T11:15:42.160Z,46.78
2023-05-03T11:18:11.399Z,46.74
2023-05-03T11:20:38.613Z,46.73
2023-05-03T11:23:09.052Z,46.98
2023-05-03T11:25:36.311Z,46.81
2023-05-03T11:28:06.572Z,46.77
2023-05-03T11:30:37.281Z,46.71
2023-05-03T11:33:05.079Z,46.58
2023-05-03T11:35:32.558Z,46.49
2023-05-03T11:37:59.812Z,46.46
2023-05-03T11:40:27.235Z,46.36
2023-05-03T11:43:00.484Z,46.33
2023-05-03T11:46:00.746Z,46.27
2023-05-03T11:48:31.873Z,45.92
2023-05-03T11:50:58.877Z,45.94
2023-05-03T11:53:26.657Z,45.76
2023-05-03T11:55:54.224Z,45.57
2023-05-03T11:58:24.372Z,45.54
2023-05-03T12:00:52.815Z,45.68
2023-05-03T12:03:32.461Z,45.76
2023-05-03T12:06:01.600Z,45.81
2023-05-03T12:08:35.591Z,46.06
2023-05-03T12:11:06.525Z,46.15
2023-05-03T12:13:38.888Z,46.26
2023-05-03T12:16:11.522Z,46.24
2023-05-03T12:18:49.630Z,46.62
2023-05-03T12:23:51.858Z,46.92
2023-05-03T12:26:19.956Z,47.34
2023-05-03T12:28:48.342Z,47.26
2023-05-03T12:31:18.115Z,47.43
2023-05-03T12:34:01.872Z,47.60
2023-05-03T12:36:36.883Z,47.57
2023-05-03T12:39:09.165Z,47.37
2023-05-03T12:44:10.297Z,47.75
2023-05-03T12:46:38.313Z,47.65
2023-05-03T12:49:07.663Z,47.80
2023-05-03T12:51:36.118Z,47.92
2023-05-03T12:54:09.732Z,47.93
2023-05-03T12:56:40.250Z,48.02
2023-05-03T12:59:39.097Z,47.95
2023-05-03T13:06:59.104Z,47.95
2023-05-03T13:09:37.238Z,48.11
2023-05-03T13:12:14.616Z,48.09
2023-05-03T13:14:42.459Z,48.27
2023-05-03T13:17:09.802Z,48.33
2023-05-03T13:19:37.563Z,48.41
2023-05-03T13:22:04.710Z,48.53
2023-05-03T13:24:31.984Z,48.24
2023-05-03T13:26:59.055Z,48.20
2023-05-03T13:29:26.360Z,48.34
2023-05-03T13:31:53.572Z,48.23
2023-05-03T13:34:21.168Z,48.23
2023-05-03T13:36:48.758Z,47.97
2023-05-03T13:39:16.393Z,47.86
2023-05-03T13:41:44.892Z,47.63
2023-05-03T13:44:13.349Z,47.26
2023-05-03T13:46:40.914Z,47.04
2023-05-03T13:49:08.495Z,46.75
2023-05-03T13:51:35.837Z,46.32
2023-05-03T13:54:04.668Z,45.74
2023-05-03T13:56:32.272Z,45.38
2023-05-03T13:58:59.832Z,45.32
2023-05-03T14:01:27.604Z,44.92
2023-05-03T14:03:54.936Z,45.10
2023-05-03T14:06:23.179Z,44.94
2023-05-03T14:08:53.634Z,45.10
2023-05-03T14:11:21.332Z,45.22
2023-05-03T14:13:56.935Z,44.75
2023-05-03T14:16:39.127Z,44.92
2023-05-03T14:19:10.070Z,44.61
2023-05-03T14:21:37.901Z,44.65
2023-05-03T14:24:06.143Z,45.25
2023-05-03T14:26:36.463Z,45.71
2023-05-03T14:29:05.253Z,46.02
2023-05-03T14:31:33.472Z,45.84
2023-05-03T14:34:00.786Z,45.99
2023-05-03T14:36:35.509Z,45.90
2023-05-03T14:39:03.584Z,45.64
2023-05-03T14:41:32.579Z,45.53
2023-05-03T14:43:59.741Z,46.09
2023-05-03T14:46:26.932Z,46.06
2023-05-03T14:48:54.948Z,46.40
2023-05-03T14:51:21.916Z,46.35
2023-05-03T14:53:49.170Z,46.24
2023-05-03T14:56:16.407Z,46.66
2023-05-03T14:58:43.342Z,46.66
2023-05-03T15:01:19.827Z,46.90
2023-05-03T15:03:47.063Z,47.22
2023-05-03T15:06:13.913Z,47.11
2023-05-03T15:08:40.949Z,47.30
2023-05-03T15:11:07.991Z,47.67
2023-05-03T15:13:35.572Z,48.05
2023-05-03T15:16:02.712Z,48.30
2023-05-03T15:18:29.961Z,47.87
2023-05-03T15:20:57.210Z,47.46
2023-05-03T15:23:24.372Z,47.25
2023-05-03T15:25:51.420Z,47.59
2023-05-03T15:28:19.681Z,47.57
2023-05-03T15:30:46.978Z,47.09
2023-05-03T15:33:14.738Z,47.19
2023-05-03T15:35:41.945Z,47.75
2023-05-03T15:38:09.089Z,47.75
2023-05-03T15:40:36.762Z,47.54
2023-05-03T15:43:03.818Z,47.34
2023-05-03T15:45:32.385Z,46.95
2023-05-03T15:47:59.403Z,47.03
2023-05-03T15:50:26.579Z,47.03
2023-05-03T15:52:53.545Z,47.43
2023-05-03T15:55:20.568Z,46.94
2023-05-03T15:57:47.821Z,46.84
2023-05-03T16:00:16.041Z,46.72
2023-05-03T16:02:43.452Z,46.22
2023-05-03T16:05:11.282Z,46.41
2023-05-03T16:07:38.700Z,46.69
2023-05-03T16:10:08.842Z,46.26
2023-05-03T16:12:36.668Z,46.11
2023-05-03T16:15:04.945Z,45.84
2023-05-03T16:17:35.003Z,45.72
2023-05-03T16:20:07.473Z,45.75
2023-05-03T16:22:36.728Z,45.72
2023-05-03T16:25:07.053Z,45.94
2023-05-03T16:27:34.520Z,46.40
2023-05-03T16:30:02.340Z,46.62
2023-05-03T16:32:30.078Z,46.84
2023-05-03T16:34:57.297Z,46.86
2023-05-03T16:37:24.273Z,46.92
2023-05-03T16:39:51.278Z,47.05
2023-05-03T16:42:18.544Z,46.76
2023-05-03T16:44:46.202Z,46.79
2023-05-03T16:47:13.345Z,47.04
2023-05-03T16:49:40.391Z,47.23
2023-05-03T16:52:08.764Z,47.02
2023-05-03T16:54:37.377Z,46.96
2023-05-03T16:57:04.306Z,47.36
2023-05-03T16:59:31.856Z,47.30
2023-05-03T17:01:59.055Z,47.44
2023-05-03T17:04:27.074Z,47.61
2023-05-03T17:06:54.128Z,47.82
2023-05-03T17:09:21.967Z,47.90
2023-05-03T17:11:49.035Z,48.02
2023-05-03T17:14:15.976Z,47.93
2023-05-03T17:16:44.174Z,48.34
2023-05-03T17:19:11.421Z,48.45
2023-05-03T17:21:38.578Z,48.71
2023-05-03T17:24:06.253Z,48.85
2023-05-03T17:26:33.152Z,48.68
2023-05-03T17:29:00.569Z,48.70
2023-05-03T17:31:27.579Z,48.79
2023-05-03T17:33:54.709Z,48.97
2023-05-03T17:36:22.429Z,49.26
2023-05-03T17:38:50.047Z,49.36
2023-05-03T17:41:17.179Z,49.44
2023-05-03T17:43:44.326Z,49.63
2023-05-03T17:46:12.474Z,49.73
2023-05-03T17:48:44.128Z,49.58
2023-05-03T17:51:14.144Z,49.88
2023-05-03T17:53:41.934Z,50.06
2023-05-03T17:56:15.635Z,50.19
2023-05-03T17:58:43.200Z,50.25
2023-05-03T18:01:10.692Z,50.39
2023-05-03T18:03:37.831Z,50.59
2023-05-03T18:06:07.859Z,50.57
2023-05-03T18:08:35.377Z,50.39
2023-05-03T18:11:02.673Z,50.55
2023-05-03T18:13:32.957Z,50.81
2023-05-03T18:16:00.441Z,51.08
2023-05-03T18:18:27.561Z,51.51
2023-05-03T18:21:01.673Z,52.37
2023-05-03T18:23:29.946Z,53.09
2023-05-03T18:25:56.899Z,53.42
2023-05-03T18:28:24.256Z,53.65
2023-05-03T18:30:58.082Z,53.84
2023-05-03T18:33:25.532Z,53.95
2023-05-03T18:35:53.239Z,54.17
2023-05-03T18:38:21.237Z,54.52
2023-05-03T18:40:48.700Z,54.85
2023-05-03T18:43:15.872Z,55.20
2023-05-03T18:45:43.103Z,55.21
2023-05-03T18:48:11.412Z,55.33
2023-05-03T18:50:38.838Z,55.55
2023-05-03T18:53:06.215Z,55.69
2023-05-03T18:55:33.333Z,55.58
2023-05-03T18:58:01.006Z,55.38
2023-05-03T19:00:28.044Z,55.17
2023-05-03T19:02:55.225Z,54.95
2023-05-03T19:05:22.241Z,54.71
2023-05-03T19:07:49.603Z,54.70
2023-05-03T19:10:19.308Z,54.73
2023-05-03T19:12:46.384Z,54.59
2023-05-03T19:15:13.531Z,54.34
2023-05-03T19:17:41.394Z,54.22
2023-05-03T19:20:09.667Z,54.10
2023-05-03T19:22:36.589Z,54.13
2023-05-03T19:25:05.210Z,54.18
2023-05-03T19:27:32.539Z,54.33
2023-05-03T19:29:59.684Z,54.45
2023-05-03T19:32:26.627Z,54.82
2023-05-03T19:34:53.592Z,54.93
2023-05-03T19:37:20.930Z,55.03
2023-05-03T19:39:48.068Z,55.09
2023-05-03T19:42:15.217Z,55.08
2023-05-03T19:44:42.369Z,55.19
2023-05-03T19:47:09.437Z,55.10
2023-05-03T19:49:37.381Z,55.03
2023-05-03T19:52:05.555Z,54.77
2023-05-03T19:54:33.012Z,54.63
2023-05-03T19:57:06.958Z,54.55
2023-05-03T19:59:34.904Z,54.42
2023-05-03T20:02:02.498Z,54.26
2023-05-03T20:04:30.005Z,54.10
2023-05-03T20:06:57.056Z,53.95
2023-05-03T20:09:24.201Z,53.92
2023-05-03T20:11:55.999Z,53.91
2023-05-03T20:14:23.109Z,53.83
2023-05-03T20:16:50.170Z,53.72
2023-05-03T20:19:17.816Z,53.59
2023-05-03T20:21:44.971Z,53.47
2023-05-03T20:24:12.025Z,53.51
2023-05-03T20:26:40.800Z,53.51
2023-05-03T20:29:07.652Z,53.45
2023-05-03T20:31:35.009Z,53.59
2023-05-03T20:34:02.253Z,53.82
2023-05-03T20:36:29.618Z,53.92
2023-05-03T20:38:56.650Z,54.16
2023-05-03T20:41:23.715Z,54.32
2023-05-03T20:43:51.393Z,54.47
2023-05-03T20:46:18.578Z,54.73
2023-05-03T20:48:45.654Z,54.94
2023-05-03T20:51:13.008Z,55.37
2023-05-03T20:53:40.055Z,55.76
2023-05-03T20:56:07.624Z,56.14
2023-05-03T20:58:34.776Z,56.35
2023-05-03T21:01:06.575Z,56.39
2023-05-03T21:03:34.053Z,56.49
2023-05-03T21:06:01.132Z,56.54
2023-05-03T21:08:28.078Z,56.42
2023-05-03T21:10:55.167Z,56.49
2023-05-03T21:13:22.266Z,56.58
2023-05-03T21:15:50.553Z,56.67
2023-05-03T21:18:18.950Z,56.79
2023-05-03T21:20:46.072Z,56.88
2023-05-03T21:23:13.329Z,57.10
2023-05-03T21:25:40.318Z,57.12
2023-05-03T21:28:07.549Z,57.09
2023-05-03T21:30:34.880Z,57.05
2023-05-03T21:33:02.298Z,57.07
2023-05-03T21:35:29.492Z,57.25
2023-05-03T21:37:56.530Z,57.22
2023-05-03T21:40:23.578Z,57.29
2023-05-03T21:42:52.050Z,57.34
2023-05-03T21:45:19.640Z,57.32
2023-05-03T21:47:46.927Z,57.31
2023-05-03T21:50:13.905Z,57.31
2023-05-03T21:52:41.583Z,57.32
2023-05-03T21:55:09.450Z,57.17
2023-05-03T21:57:36.884Z,57.18
2023-05-03T22:00:07.661Z,57.17
2023-05-03T22:02:35.789Z,57.20
2023-05-03T22:05:03.068Z,57.23
2023-05-03T22:07:30.201Z,57.21
2023-05-03T22:09:57.161Z,57.19
2023-05-03T22:12:24.972Z,57.27
2023-05-03T22:14:52.369Z,57.26
2023-05-03T22:17:19.437Z,57.28
2023-05-03T22:19:46.472Z,57.30
2023-05-03T22:22:13.860Z,57.30
2023-05-03T22:24:41.175Z,57.30
2023-05-03T22:27:08.237Z,57.26
2023-05-03T22:29:37.207Z,57.32
2023-05-03T22:32:04.898Z,57.31
2023-05-03T22:34:32.225Z,57.43
2023-05-03T22:36:59.061Z,57.41
2023-05-03T22:39:26.424Z,57.40
2023-05-03T22:41:53.570Z,57.49
2023-05-03T22:44:20.619Z,57.48
2023-05-03T22:46:47.660Z,57.35
2023-05-03T22:49:15.222Z,57.39
2023-05-03T22:51:42.266Z,57.36
2023-05-03T22:54:09.216Z,57.32
2023-05-03T22:56:37.181Z,57.17
2023-05-03T22:59:04.535Z,57.02
2023-05-03T23:01:31.810Z,56.93
2023-05-03T23:03:59.024Z,56.94
2023-05-03T23:06:25.917Z,56.94
2023-05-03T23:08:53.144Z,57.11
2023-05-03T23:11:20.799Z,57.20
2023-05-03T23:13:47.847Z,57.17
2023-05-03T23:16:15.002Z,57.28
2023-05-03T23:18:42.448Z,57.38
2023-05-03T23:21:09.700Z,57.35
2023-05-03T23:23:36.954Z,57.29
2023-05-03T23:26:04.109Z,57.31
2023-05-03T23:28:32.395Z,57.53
2023-05-03T23:30:59.844Z,57.55
2023-05-03T23:33:27.549Z,57.62
2023-05-03T23:35:55.258Z,57.74
2023-05-03T23:38:22.764Z,57.87
2023-05-03T23:40:50.072Z,57.86
2023-05-03T23:43:17.115Z,57.84
2023-05-03T23:45:44.196Z,57.83
2023-05-03T23:48:11.476Z,57.78
2023-05-03T23:50:38.469Z,57.66
2023-05-03T23:53:06.736Z,57.61
2023-05-03T23:55:33.687Z,57.48
2023-05-03T23:58:00.733Z,57.39
